CST,Max TemperatureF,Mean TemperatureF,Min TemperatureF,Max Dew PointF,MeanDew PointF,Min DewpointF,Max Humidity, Mean Humidity, Min Humidity, Max Sea Level PressureIn, Mean Sea Level PressureIn, Min Sea Level PressureIn, Max VisibilityMiles, Mean VisibilityMiles, Min VisibilityMiles, Max Wind SpeedMPH, Mean Wind SpeedMPH, Max Gust SpeedMPH,PrecipitationIn, CloudCover, Events, WindDirDegrees
2014-2-1,72,61,48,58,52,37,84,71,59,29.92,29.84,29.73,10,10,7,17,11,30,0.00,7,,141
2014-2-2,46,38,30,37,31,25,92,81,68,30.27,30.09,29.91,10,6,2,17,14,29,0.00,8,Rain,353
2014-2-3,39,34,30,37,31,26,97,88,76,30.26,30.15,29.95,10,4,1,14,7,22,0.00,8,,39
2014-2-4,60,48,37,42,39,37,100,86,47,30.13,29.95,29.87,10,6,2,12,4,18,0.00,6,Rain,282
2014-2-5,42,34,26,38,23,14,85,66,45,30.49,30.36,30.14,10,10,8,18,12,29,0.00,3,,4
2014-2-6,26,22,19,15,13,10,69,64,58,30.54,30.46,30.39,10,10,10,14,9,20,0.00,8,,7
2014-2-7,33,28,23,28,23,15,89,81,69,30.38,30.30,30.21,10,6,2,7,5,,0.00,8,,59
2014-2-8,69,51,33,39,34,28,96,74,28,30.22,30.14,29.99,10,6,1,9,5,,0.00,4,,195
2014-2-9,77,56,34,50,40,30,89,62,25,30.09,30.02,29.90,10,9,5,13,4,20,0.00,1,,149
2014-2-10,46,37,28,40,33,26,93,87,77,30.24,30.16,30.04,9,5,2,16,12,23,0.00,8,,9
2014-2-11,30,29,28,28,26,24,89,85,79,30.30,30.23,30.19,8,5,2,16,12,23,0.01,8,Rain,356
2014-2-12,52,40,28,30,26,24,85,67,43,30.25,30.17,30.09,10,9,6,13,8,18,0.00,3,,318
2014-2-13,68,48,28,35,31,25,85,57,26,30.09,29.99,29.91,10,10,8,14,4,18,0.00,0,,186
2014-2-14,78,58,39,41,32,26,82,45,18,30.10,29.94,29.84,10,10,10,17,6,29,0.00,0,,329
2014-2-15,73,58,43,47,31,23,74,39,23,30.16,30.08,29.99,10,10,10,17,7,25,0.00,0,,149
2014-2-16,72,63,54,58,55,48,93,83,59,30.08,30.00,29.93,10,7,3,12,7,21,0.00,5,,172
2014-2-17,75,64,54,60,45,24,94,60,15,30.14,30.04,29.92,10,7,4,23,10,31,0.00,4,,291
2014-2-18,77,62,48,58,44,24,90,54,27,30.12,30.01,29.89,10,9,5,15,5,21,0.00,3,,188
2014-2-19,72,66,60,61,60,59,100,89,66,29.95,29.87,29.70,10,4,1,17,8,29,0.00,6,,174
2014-2-20,78,65,48,62,47,20,87,58,12,30.11,29.86,29.70,10,9,5,22,12,31,0.00,4,,258
2014-2-21,66,50,34,27,25,21,70,38,19,30.20,30.10,30.01,10,10,7,14,6,22,0.00,0,,171
2014-2-22,72,59,46,56,44,25,83,61,38,30.04,29.95,29.85,10,10,9,17,7,26,0.00,2,,181
2014-2-23,80,67,54,59,53,39,100,79,32,30.06,29.95,29.88,10,5,0,14,5,21,0.00,4,Fog,242
2014-2-24,72,61,50,58,49,42,93,70,53,30.14,30.05,29.99,10,8,3,14,6,,0.00,2,,94
2014-2-25,64,55,46,63,55,44,100,95,90,30.09,30.03,29.96,6,2,0,14,7,20,0.00,8,Fog-Rain,42
2014-2-26,45,36,28,43,29,19,93,71,41,30.28,30.18,30.07,10,7,2,20,13,28,0.00,5,Rain,360
2014-2-27,57,42,27,31,25,18,75,53,33,30.19,30.06,29.89,10,10,10,10,4,18,0.00,0,,166
2014-2-28,82,62,41,48,39,30,86,56,16,29.89,29.83,29.75,10,10,7,17,9,24,0.00,0,,211